Richland, Mississippi
Current Conditions -  °F | °C
As of 5:54 AM on Thursday 27 Nov 2014 (Local Time) from KJAN Reporting Station
Clear Clear  
Wind Chill:   Ceiling: Unl
Heat Index:   Visibility: 10mi
Dew Point: -1°   Wind: 9mph
Humidity: 67%   Direction: 350°N
Pressure: 30.39"   Gusts: NA
Location:  32.2326°N, 90.165°W
Report Text: KJAN 271154Z 35008KT 10SM CLR 05/M01 A3039 RMK AO2 SLP289 T00501006 10106 20044 51032
Loading
Personal Weather Stations






























Interactive Weather Map New forecast layout! Learn more

10-Day Weather Forecast

Advertisements
Track Severe Weather on mobile